sensor_id;sensor_type;location;lat;lon;timestamp;temperature;humidity
38936;DHT22;66589;47.458;9.644;2023-02-28T00:01:05;0.50;75.10
38936;DHT22;66589;47.458;9.644;2023-02-28T00:03:30;0.40;75.10
38936;DHT22;66589;47.458;9.644;2023-02-28T00:06:03;0.40;75.30
38936;DHT22;66589;47.458;9.644;2023-02-28T00:08:29;0.40;75.40
38936;DHT22;66589;47.458;9.644;2023-02-28T00:10:55;0.30;75.60
38936;DHT22;66589;47.458;9.644;2023-02-28T00:13:20;0.30;75.50
38936;DHT22;66589;47.458;9.644;2023-02-28T00:15:46;0.30;75.60
38936;DHT22;66589;47.458;9.644;2023-02-28T00:18:12;0.30;75.70
38936;DHT22;66589;47.458;9.644;2023-02-28T00:20:38;0.30;75.80
38936;DHT22;66589;47.458;9.644;2023-02-28T00:23:04;0.20;76.00
38936;DHT22;66589;47.458;9.644;2023-02-28T00:25:30;0.20;76.00
38936;DHT22;66589;47.458;9.644;2023-02-28T00:27:55;0.20;76.30
38936;DHT22;66589;47.458;9.644;2023-02-28T00:30:23;0.20;76.20
38936;DHT22;66589;47.458;9.644;2023-02-28T00:32:49;0.10;76.10
38936;DHT22;66589;47.458;9.644;2023-02-28T00:35:15;0.10;76.10
38936;DHT22;66589;47.458;9.644;2023-02-28T00:37:41;0.10;76.10
38936;DHT22;66589;47.458;9.644;2023-02-28T00:40:08;0.10;75.80
38936;DHT22;66589;47.458;9.644;2023-02-28T00:42:35;0.10;76.10
38936;DHT22;66589;47.458;9.644;2023-02-28T00:45:01;0.10;76.30
38936;DHT22;66589;47.458;9.644;2023-02-28T00:47:29;0.00;76.60
38936;DHT22;66589;47.458;9.644;2023-02-28T00:49:54;0.00;76.60
38936;DHT22;66589;47.458;9.644;2023-02-28T00:52:20;0.00;76.80
38936;DHT22;66589;47.458;9.644;2023-02-28T00:54:46;0.00;77.60
38936;DHT22;66589;47.458;9.644;2023-02-28T00:57:12;0.00;77.80
38936;DHT22;66589;47.458;9.644;2023-02-28T00:59:38;-0.10;77.90
38936;DHT22;66589;47.458;9.644;2023-02-28T01:02:03;-0.10;77.90
38936;DHT22;66589;47.458;9.644;2023-02-28T01:04:29;-0.20;77.80
38936;DHT22;66589;47.458;9.644;2023-02-28T01:06:54;-0.10;78.10
38936;DHT22;66589;47.458;9.644;2023-02-28T01:09:20;-0.20;78.10
38936;DHT22;66589;47.458;9.644;2023-02-28T01:11:46;-0.20;77.80
38936;DHT22;66589;47.458;9.644;2023-02-28T01:14:13;-0.20;77.70
38936;DHT22;66589;47.458;9.644;2023-02-28T01:16:40;-0.20;77.80
38936;DHT22;66589;47.458;9.644;2023-02-28T01:19:06;-0.30;78.40
38936;DHT22;66589;47.458;9.644;2023-02-28T01:21:31;-0.30;78.20
38936;DHT22;66589;47.458;9.644;2023-02-28T01:23:57;-0.30;78.40
38936;DHT22;66589;47.458;9.644;2023-02-28T01:26:24;-0.30;78.50
38936;DHT22;66589;47.458;9.644;2023-02-28T01:28:51;-0.30;79.20
38936;DHT22;66589;47.458;9.644;2023-02-28T01:31:18;-0.40;78.70
38936;DHT22;66589;47.458;9.644;2023-02-28T01:33:45;-0.40;78.70
38936;DHT22;66589;47.458;9.644;2023-02-28T01:36:16;-0.40;78.70
38936;DHT22;66589;47.458;9.644;2023-02-28T01:38:42;-0.40;78.90
38936;DHT22;66589;47.458;9.644;2023-02-28T01:41:09;-0.40;79.10
38936;DHT22;66589;47.458;9.644;2023-02-28T01:46:10;-0.50;79.50
38936;DHT22;66589;47.458;9.644;2023-02-28T01:48:46;-0.50;79.10
38936;DHT22;66589;47.458;9.644;2023-02-28T01:51:24;-0.50;79.00
38936;DHT22;66589;47.458;9.644;2023-02-28T01:54:03;-0.50;78.60
38936;DHT22;66589;47.458;9.644;2023-02-28T01:56:33;-0.50;78.80
38936;DHT22;66589;47.458;9.644;2023-02-28T01:59:02;-0.50;79.00
38936;DHT22;66589;47.458;9.644;2023-02-28T02:01:29;-0.60;79.00
38936;DHT22;66589;47.458;9.644;2023-02-28T02:03:59;-0.60;79.30
38936;DHT22;66589;47.458;9.644;2023-02-28T02:06:34;-0.60;79.10
38936;DHT22;66589;47.458;9.644;2023-02-28T02:09:00;-0.60;78.80
38936;DHT22;66589;47.458;9.644;2023-02-28T02:11:26;-0.60;79.20
38936;DHT22;66589;47.458;9.644;2023-02-28T02:16:48;-0.60;79.60
38936;DHT22;66589;47.458;9.644;2023-02-28T02:19:51;-0.60;79.90
38936;DHT22;66589;47.458;9.644;2023-02-28T02:28:11;-0.70;80.00
38936;DHT22;66589;47.458;9.644;2023-02-28T02:39:53;-0.70;79.70
38936;DHT22;66589;47.458;9.644;2023-02-28T02:45:19;-0.70;79.80
38936;DHT22;66589;47.458;9.644;2023-02-28T02:47:47;-0.70;79.50
38936;DHT22;66589;47.458;9.644;2023-02-28T02:50:26;-0.70;79.60
38936;DHT22;66589;47.458;9.644;2023-02-28T02:52:57;-0.60;79.70
38936;DHT22;66589;47.458;9.644;2023-02-28T02:55:25;-0.50;79.50
38936;DHT22;66589;47.458;9.644;2023-02-28T02:58:01;-0.50;79.30
38936;DHT22;66589;47.458;9.644;2023-02-28T03:00:33;-0.50;79.30
38936;DHT22;66589;47.458;9.644;2023-02-28T03:03:01;-0.50;79.30
38936;DHT22;66589;47.458;9.644;2023-02-28T03:05:31;-0.40;79.20
38936;DHT22;66589;47.458;9.644;2023-02-28T03:07:57;-0.40;79.00
38936;DHT22;66589;47.458;9.644;2023-02-28T03:10:36;-0.30;79.00
38936;DHT22;66589;47.458;9.644;2023-02-28T03:21:19;-0.10;78.30
38936;DHT22;66589;47.458;9.644;2023-02-28T03:24:07;-0.20;78.40
38936;DHT22;66589;47.458;9.644;2023-02-28T03:26:39;-0.20;78.70
38936;DHT22;66589;47.458;9.644;2023-02-28T03:29:23;-0.10;78.50
38936;DHT22;66589;47.458;9.644;2023-02-28T03:32:08;-0.10;78.20
38936;DHT22;66589;47.458;9.644;2023-02-28T03:34:43;0.00;78.40
38936;DHT22;66589;47.458;9.644;2023-02-28T03:37:16;0.10;79.00
38936;DHT22;66589;47.458;9.644;2023-02-28T03:40:05;0.10;78.00
38936;DHT22;66589;47.458;9.644;2023-02-28T03:42:35;0.10;77.70
38936;DHT22;66589;47.458;9.644;2023-02-28T03:45:05;0.20;77.80
38936;DHT22;66589;47.458;9.644;2023-02-28T03:47:41;0.20;77.60
38936;DHT22;66589;47.458;9.644;2023-02-28T03:50:19;0.30;77.50
38936;DHT22;66589;47.458;9.644;2023-02-28T03:53:39;0.40;77.50
38936;DHT22;66589;47.458;9.644;2023-02-28T04:01:37;0.40;77.70
38936;DHT22;66589;47.458;9.644;2023-02-28T04:04:04;0.50;76.80
38936;DHT22;66589;47.458;9.644;2023-02-28T04:06:32;0.40;76.70
38936;DHT22;66589;47.458;9.644;2023-02-28T04:08:58;0.50;77.10
38936;DHT22;66589;47.458;9.644;2023-02-28T04:13:58;0.60;77.20
38936;DHT22;66589;47.458;9.644;2023-02-28T04:16:24;0.70;77.20
38936;DHT22;66589;47.458;9.644;2023-02-28T04:18:50;0.70;76.40
38936;DHT22;66589;47.458;9.644;2023-02-28T04:21:15;0.70;76.00
38936;DHT22;66589;47.458;9.644;2023-02-28T04:23:41;0.70;75.80
38936;DHT22;66589;47.458;9.644;2023-02-28T04:26:07;0.70;76.10
38936;DHT22;66589;47.458;9.644;2023-02-28T04:28:33;0.60;76.30
38936;DHT22;66589;47.458;9.644;2023-02-28T04:31:04;0.60;76.40
38936;DHT22;66589;47.458;9.644;2023-02-28T04:33:31;0.70;76.40
38936;DHT22;66589;47.458;9.644;2023-02-28T04:36:07;0.70;76.20
38936;DHT22;66589;47.458;9.644;2023-02-28T04:38:38;0.80;76.50
38936;DHT22;66589;47.458;9.644;2023-02-28T04:41:04;0.80;75.50
38936;DHT22;66589;47.458;9.644;2023-02-28T04:43:30;0.80;75.40
38936;DHT22;66589;47.458;9.644;2023-02-28T04:45:57;0.80;75.60
38936;DHT22;66589;47.458;9.644;2023-02-28T04:48:27;0.80;75.90
38936;DHT22;66589;47.458;9.644;2023-02-28T04:50:53;0.80;75.20
38936;DHT22;66589;47.458;9.644;2023-02-28T04:53:19;0.80;75.20
38936;DHT22;66589;47.458;9.644;2023-02-28T04:55:45;0.80;74.90
38936;DHT22;66589;47.458;9.644;2023-02-28T04:58:13;0.80;75.30
38936;DHT22;66589;47.458;9.644;2023-02-28T05:00:39;0.80;75.10
38936;DHT22;66589;47.458;9.644;2023-02-28T05:03:05;0.80;75.40
38936;DHT22;66589;47.458;9.644;2023-02-28T05:05:31;0.70;74.90
38936;DHT22;66589;47.458;9.644;2023-02-28T05:07:56;0.60;75.30
38936;DHT22;66589;47.458;9.644;2023-02-28T05:10:22;0.60;75.30
38936;DHT22;66589;47.458;9.644;2023-02-28T05:12:48;0.60;75.00
38936;DHT22;66589;47.458;9.644;2023-02-28T05:15:15;0.50;75.10
38936;DHT22;66589;47.458;9.644;2023-02-28T05:17:41;0.50;75.60
38936;DHT22;66589;47.458;9.644;2023-02-28T05:20:08;0.50;75.60
38936;DHT22;66589;47.458;9.644;2023-02-28T05:22:44;0.40;75.90
38936;DHT22;66589;47.458;9.644;2023-02-28T05:25:17;0.40;75.90
38936;DHT22;66589;47.458;9.644;2023-02-28T05:27:43;0.50;76.00
38936;DHT22;66589;47.458;9.644;2023-02-28T05:30:09;0.50;76.30
38936;DHT22;66589;47.458;9.644;2023-02-28T05:32:39;0.50;75.90
38936;DHT22;66589;47.458;9.644;2023-02-28T05:35:08;0.40;76.20
38936;DHT22;66589;47.458;9.644;2023-02-28T05:37:35;0.40;76.80
38936;DHT22;66589;47.458;9.644;2023-02-28T05:40:02;0.40;76.20
38936;DHT22;66589;47.458;9.644;2023-02-28T05:42:31;0.50;76.30
38936;DHT22;66589;47.458;9.644;2023-02-28T05:44:57;0.50;76.30
38936;DHT22;66589;47.458;9.644;2023-02-28T05:47:25;0.60;75.80
38936;DHT22;66589;47.458;9.644;2023-02-28T05:49:51;0.60;76.00
38936;DHT22;66589;47.458;9.644;2023-02-28T05:52:17;0.60;75.60
38936;DHT22;66589;47.458;9.644;2023-02-28T05:54:43;0.60;75.80
38936;DHT22;66589;47.458;9.644;2023-02-28T05:57:09;0.60;75.80
38936;DHT22;66589;47.458;9.644;2023-02-28T05:59:34;0.50;75.30
38936;DHT22;66589;47.458;9.644;2023-02-28T06:02:00;0.50;75.20
38936;DHT22;66589;47.458;9.644;2023-02-28T06:04:26;0.50;75.00
38936;DHT22;66589;47.458;9.644;2023-02-28T06:06:51;0.50;74.80
38936;DHT22;66589;47.458;9.644;2023-02-28T06:09:18;0.50;75.10
38936;DHT22;66589;47.458;9.644;2023-02-28T06:11:44;0.50;74.80
38936;DHT22;66589;47.458;9.644;2023-02-28T06:14:18;0.40;74.80
38936;DHT22;66589;47.458;9.644;2023-02-28T06:16:44;0.50;75.20
38936;DHT22;66589;47.458;9.644;2023-02-28T06:19:10;0.40;74.40
38936;DHT22;66589;47.458;9.644;2023-02-28T06:21:36;0.40;74.90
38936;DHT22;66589;47.458;9.644;2023-02-28T06:24:02;0.40;74.60
38936;DHT22;66589;47.458;9.644;2023-02-28T06:26:29;0.30;74.70
38936;DHT22;66589;47.458;9.644;2023-02-28T06:28:55;0.10;75.20
38936;DHT22;66589;47.458;9.644;2023-02-28T06:31:21;0.00;76.00
38936;DHT22;66589;47.458;9.644;2023-02-28T06:33:47;0.00;76.50
38936;DHT22;66589;47.458;9.644;2023-02-28T06:36:15;0.00;76.50
38936;DHT22;66589;47.458;9.644;2023-02-28T06:38:41;0.20;75.80
38936;DHT22;66589;47.458;9.644;2023-02-28T06:41:07;0.30;75.80
38936;DHT22;66589;47.458;9.644;2023-02-28T06:43:40;0.40;75.20
38936;DHT22;66589;47.458;9.644;2023-02-28T06:46:08;0.50;74.60
38936;DHT22;66589;47.458;9.644;2023-02-28T06:48:36;0.50;75.00
38936;DHT22;66589;47.458;9.644;2023-02-28T06:51:11;0.60;74.80
38936;DHT22;66589;47.458;9.644;2023-02-28T06:53:37;0.60;74.80
38936;DHT22;66589;47.458;9.644;2023-02-28T06:56:07;0.60;74.40
38936;DHT22;66589;47.458;9.644;2023-02-28T06:58:34;0.70;74.20
38936;DHT22;66589;47.458;9.644;2023-02-28T07:00:59;0.70;74.10
38936;DHT22;66589;47.458;9.644;2023-02-28T07:03:25;0.80;74.00
38936;DHT22;66589;47.458;9.644;2023-02-28T07:05:51;0.90;74.00
38936;DHT22;66589;47.458;9.644;2023-02-28T07:08:17;0.90;73.60
38936;DHT22;66589;47.458;9.644;2023-02-28T07:10:42;1.00;74.30
38936;DHT22;66589;47.458;9.644;2023-02-28T07:13:09;1.10;73.40
38936;DHT22;66589;47.458;9.644;2023-02-28T07:15:36;1.00;73.10
38936;DHT22;66589;47.458;9.644;2023-02-28T07:18:01;1.00;73.70
38936;DHT22;66589;47.458;9.644;2023-02-28T07:20:27;1.00;73.80
38936;DHT22;66589;47.458;9.644;2023-02-28T07:22:53;1.00;73.60
38936;DHT22;66589;47.458;9.644;2023-02-28T07:25:23;1.00;73.60
38936;DHT22;66589;47.458;9.644;2023-02-28T07:27:49;0.90;73.90
38936;DHT22;66589;47.458;9.644;2023-02-28T07:30:15;1.00;74.30
38936;DHT22;66589;47.458;9.644;2023-02-28T07:32:40;1.10;74.00
38936;DHT22;66589;47.458;9.644;2023-02-28T07:35:07;1.10;73.70
38936;DHT22;66589;47.458;9.644;2023-02-28T07:37:33;1.20;73.60
38936;DHT22;66589;47.458;9.644;2023-02-28T07:40:06;1.20;73.60
38936;DHT22;66589;47.458;9.644;2023-02-28T07:42:36;1.40;73.10
38936;DHT22;66589;47.458;9.644;2023-02-28T07:45:02;1.50;72.60
38936;DHT22;66589;47.458;9.644;2023-02-28T07:47:31;1.50;72.40
38936;DHT22;66589;47.458;9.644;2023-02-28T07:49:57;1.60;72.20
38936;DHT22;66589;47.458;9.644;2023-02-28T07:52:24;1.60;72.30
38936;DHT22;66589;47.458;9.644;2023-02-28T07:54:50;1.60;72.00
38936;DHT22;66589;47.458;9.644;2023-02-28T07:57:16;1.70;71.90
38936;DHT22;66589;47.458;9.644;2023-02-28T07:59:42;1.70;72.60
38936;DHT22;66589;47.458;9.644;2023-02-28T08:02:15;1.80;71.70
38936;DHT22;66589;47.458;9.644;2023-02-28T08:04:41;1.90;71.70
38936;DHT22;66589;47.458;9.644;2023-02-28T08:07:07;2.00;70.90
38936;DHT22;66589;47.458;9.644;2023-02-28T08:09:33;2.10;70.60
38936;DHT22;66589;47.458;9.644;2023-02-28T08:11:59;2.00;70.80
38936;DHT22;66589;47.458;9.644;2023-02-28T08:14:25;2.20;70.80
38936;DHT22;66589;47.458;9.644;2023-02-28T08:16:51;2.30;70.20
38936;DHT22;66589;47.458;9.644;2023-02-28T08:19:16;2.40;69.80
38936;DHT22;66589;47.458;9.644;2023-02-28T08:21:42;2.60;69.50
38936;DHT22;66589;47.458;9.644;2023-02-28T08:24:08;2.70;68.70
38936;DHT22;66589;47.458;9.644;2023-02-28T08:26:33;2.90;69.10
38936;DHT22;66589;47.458;9.644;2023-02-28T08:28:59;2.90;69.00
38936;DHT22;66589;47.458;9.644;2023-02-28T08:31:25;2.90;68.80
38936;DHT22;66589;47.458;9.644;2023-02-28T08:33:50;3.00;69.00
38936;DHT22;66589;47.458;9.644;2023-02-28T08:36:19;3.10;68.20
38936;DHT22;66589;47.458;9.644;2023-02-28T08:38:45;3.20;68.10
38936;DHT22;66589;47.458;9.644;2023-02-28T08:41:12;3.30;68.60
38936;DHT22;66589;47.458;9.644;2023-02-28T08:43:38;3.30;67.80
38936;DHT22;66589;47.458;9.644;2023-02-28T08:46:05;3.40;67.90
38936;DHT22;66589;47.458;9.644;2023-02-28T08:48:32;3.50;67.90
38936;DHT22;66589;47.458;9.644;2023-02-28T08:51:04;3.60;67.50
38936;DHT22;66589;47.458;9.644;2023-02-28T08:53:30;3.80;66.70
38936;DHT22;66589;47.458;9.644;2023-02-28T08:55:58;3.90;66.30
38936;DHT22;66589;47.458;9.644;2023-02-28T08:58:24;4.10;65.70
38936;DHT22;66589;47.458;9.644;2023-02-28T09:00:51;4.20;65.30
38936;DHT22;66589;47.458;9.644;2023-02-28T09:03:16;4.20;64.80
38936;DHT22;66589;47.458;9.644;2023-02-28T09:05:53;4.40;66.10
38936;DHT22;66589;47.458;9.644;2023-02-28T09:08:18;4.50;64.50
38936;DHT22;66589;47.458;9.644;2023-02-28T09:10:44;4.70;64.80
38936;DHT22;66589;47.458;9.644;2023-02-28T09:13:10;5.00;64.40
38936;DHT22;66589;47.458;9.644;2023-02-28T09:15:37;5.20;64.00
38936;DHT22;66589;47.458;9.644;2023-02-28T09:18:03;5.50;63.50
38936;DHT22;66589;47.458;9.644;2023-02-28T09:20:29;5.70;63.50
38936;DHT22;66589;47.458;9.644;2023-02-28T09:22:55;5.70;63.90
38936;DHT22;66589;47.458;9.644;2023-02-28T09:25:20;5.70;62.40
38936;DHT22;66589;47.458;9.644;2023-02-28T09:27:46;5.90;60.70
38936;DHT22;66589;47.458;9.644;2023-02-28T09:30:12;6.00;60.20
38936;DHT22;66589;47.458;9.644;2023-02-28T09:32:38;6.10;61.00
38936;DHT22;66589;47.458;9.644;2023-02-28T09:35:04;6.50;62.00
38936;DHT22;66589;47.458;9.644;2023-02-28T09:37:30;6.90;60.00
38936;DHT22;66589;47.458;9.644;2023-02-28T09:39:56;7.20;58.30
38936;DHT22;66589;47.458;9.644;2023-02-28T09:42:31;7.30;58.20
38936;DHT22;66589;47.458;9.644;2023-02-28T09:44:58;7.40;57.30
38936;DHT22;66589;47.458;9.644;2023-02-28T09:47:38;7.80;56.80
38936;DHT22;66589;47.458;9.644;2023-02-28T09:52:52;8.80;57.80
38936;DHT22;66589;47.458;9.644;2023-02-28T09:55:20;9.70;52.50
38936;DHT22;66589;47.458;9.644;2023-02-28T09:57:46;10.10;52.40
38936;DHT22;66589;47.458;9.644;2023-02-28T10:00:32;11.00;53.00
38936;DHT22;66589;47.458;9.644;2023-02-28T10:08:26;12.60;47.60
38936;DHT22;66589;47.458;9.644;2023-02-28T10:11:02;11.60;47.10
38936;DHT22;66589;47.458;9.644;2023-02-28T10:16:46;10.50;50.00
38936;DHT22;66589;47.458;9.644;2023-02-28T10:19:42;10.10;53.80
38936;DHT22;66589;47.458;9.644;2023-02-28T10:22:21;9.70;52.60
38936;DHT22;66589;47.458;9.644;2023-02-28T10:24:52;10.50;52.70
38936;DHT22;66589;47.458;9.644;2023-02-28T10:27:23;11.90;51.30
38936;DHT22;66589;47.458;9.644;2023-02-28T10:29:52;14.50;45.70
38936;DHT22;66589;47.458;9.644;2023-02-28T10:32:20;16.80;41.30
38936;DHT22;66589;47.458;9.644;2023-02-28T10:37:39;20.40;36.60
38936;DHT22;66589;47.458;9.644;2023-02-28T10:40:07;20.70;34.90
38936;DHT22;66589;47.458;9.644;2023-02-28T10:45:21;18.90;36.20
38936;DHT22;66589;47.458;9.644;2023-02-28T10:47:59;17.80;37.80
38936;DHT22;66589;47.458;9.644;2023-02-28T10:50:44;15.80;39.00
38936;DHT22;66589;47.458;9.644;2023-02-28T11:01:42;11.30;46.70
38936;DHT22;66589;47.458;9.644;2023-02-28T11:04:33;10.30;48.70
38936;DHT22;66589;47.458;9.644;2023-02-28T11:07:25;9.40;50.20
38936;DHT22;66589;47.458;9.644;2023-02-28T11:09:51;9.00;52.60
38936;DHT22;66589;47.458;9.644;2023-02-28T11:12:28;8.60;52.50
38936;DHT22;66589;47.458;9.644;2023-02-28T11:15:07;8.50;53.10
38936;DHT22;66589;47.458;9.644;2023-02-28T11:17:44;8.50;53.60
38936;DHT22;66589;47.458;9.644;2023-02-28T11:20:18;8.40;53.90
38936;DHT22;66589;47.458;9.644;2023-02-28T11:22:46;8.10;54.60
38936;DHT22;66589;47.458;9.644;2023-02-28T11:25:24;7.80;55.40
38936;DHT22;66589;47.458;9.644;2023-02-28T11:27:52;7.60;55.30
38936;DHT22;66589;47.458;9.644;2023-02-28T11:32:53;7.50;55.50
38936;DHT22;66589;47.458;9.644;2023-02-28T11:37:49;7.30;56.30
38936;DHT22;66589;47.458;9.644;2023-02-28T11:46:24;6.90;56.50
38936;DHT22;66589;47.458;9.644;2023-02-28T11:52:06;6.90;58.90
38936;DHT22;66589;47.458;9.644;2023-02-28T12:00:10;6.90;59.20
38936;DHT22;66589;47.458;9.644;2023-02-28T12:14:03;6.30;59.00
38936;DHT22;66589;47.458;9.644;2023-02-28T12:26:58;6.30;58.80
38936;DHT22;66589;47.458;9.644;2023-02-28T12:29:29;6.30;60.10
38936;DHT22;66589;47.458;9.644;2023-02-28T12:32:16;6.20;60.00
38936;DHT22;66589;47.458;9.644;2023-02-28T12:35:03;6.20;61.20
38936;DHT22;66589;47.458;9.644;2023-02-28T12:37:43;6.30;59.50
38936;DHT22;66589;47.458;9.644;2023-02-28T12:42:53;6.30;59.80
38936;DHT22;66589;47.458;9.644;2023-02-28T12:45:24;6.30;61.30
38936;DHT22;66589;47.458;9.644;2023-02-28T12:47:57;6.20;60.60
38936;DHT22;66589;47.458;9.644;2023-02-28T12:50:24;6.40;61.70
38936;DHT22;66589;47.458;9.644;2023-02-28T12:53:03;6.40;61.90
38936;DHT22;66589;47.458;9.644;2023-02-28T13:09:05;6.00;61.40
38936;DHT22;66589;47.458;9.644;2023-02-28T13:11:40;6.00;61.80
38936;DHT22;66589;47.458;9.644;2023-02-28T13:14:28;6.10;61.70
38936;DHT22;66589;47.458;9.644;2023-02-28T13:19:58;6.10;61.10
38936;DHT22;66589;47.458;9.644;2023-02-28T13:22:45;6.20;62.10
38936;DHT22;66589;47.458;9.644;2023-02-28T13:27:58;6.30;60.60
38936;DHT22;66589;47.458;9.644;2023-02-28T13:33:29;6.10;61.00
38936;DHT22;66589;47.458;9.644;2023-02-28T13:38:47;5.90;61.00
38936;DHT22;66589;47.458;9.644;2023-02-28T13:47:15;6.20;61.80
38936;DHT22;66589;47.458;9.644;2023-02-28T13:57:39;6.50;60.20
38936;DHT22;66589;47.458;9.644;2023-02-28T14:05:46;6.90;59.70
38936;DHT22;66589;47.458;9.644;2023-02-28T14:08:31;7.00;59.90
38936;DHT22;66589;47.458;9.644;2023-02-28T14:11:05;6.90;60.80
38936;DHT22;66589;47.458;9.644;2023-02-28T14:13:42;6.70;60.80
38936;DHT22;66589;47.458;9.644;2023-02-28T14:16:20;6.50;59.70
38936;DHT22;66589;47.458;9.644;2023-02-28T14:21:24;6.30;62.50
38936;DHT22;66589;47.458;9.644;2023-02-28T14:26:53;5.90;60.70
38936;DHT22;66589;47.458;9.644;2023-02-28T14:29:47;5.90;61.60
38936;DHT22;66589;47.458;9.644;2023-02-28T14:32:47;5.90;62.10
38936;DHT22;66589;47.458;9.644;2023-02-28T14:37:47;5.90;60.80
38936;DHT22;66589;47.458;9.644;2023-02-28T14:40:38;6.00;61.20
38936;DHT22;66589;47.458;9.644;2023-02-28T14:43:06;6.00;61.30
38936;DHT22;66589;47.458;9.644;2023-02-28T14:45:43;6.00;61.60
38936;DHT22;66589;47.458;9.644;2023-02-28T14:48:09;6.00;61.10
38936;DHT22;66589;47.458;9.644;2023-02-28T14:50:37;5.90;61.70
38936;DHT22;66589;47.458;9.644;2023-02-28T14:53:03;6.00;62.00
38936;DHT22;66589;47.458;9.644;2023-02-28T14:55:33;6.00;60.80
38936;DHT22;66589;47.458;9.644;2023-02-28T14:58:05;6.10;62.30
38936;DHT22;66589;47.458;9.644;2023-02-28T15:00:36;6.00;65.30
38936;DHT22;66589;47.458;9.644;2023-02-28T15:05:55;5.80;62.10
38936;DHT22;66589;47.458;9.644;2023-02-28T15:08:20;5.80;63.30
38936;DHT22;66589;47.458;9.644;2023-02-28T15:10:59;5.80;63.40
38936;DHT22;66589;47.458;9.644;2023-02-28T15:13:48;5.70;63.20
38936;DHT22;66589;47.458;9.644;2023-02-28T15:23:48;5.40;63.10
38936;DHT22;66589;47.458;9.644;2023-02-28T15:26:21;5.40;63.80
38936;DHT22;66589;47.458;9.644;2023-02-28T15:28:56;5.40;65.50
38936;DHT22;66589;47.458;9.644;2023-02-28T15:31:29;5.20;64.50
38936;DHT22;66589;47.458;9.644;2023-02-28T15:34:03;5.20;64.40
38936;DHT22;66589;47.458;9.644;2023-02-28T15:36:31;5.10;65.00
38936;DHT22;66589;47.458;9.644;2023-02-28T15:38:59;5.00;65.40
38936;DHT22;66589;47.458;9.644;2023-02-28T15:41:36;4.90;65.50
38936;DHT22;66589;47.458;9.644;2023-02-28T15:44:27;4.80;66.90
38936;DHT22;66589;47.458;9.644;2023-02-28T15:47:16;4.80;67.60
38936;DHT22;66589;47.458;9.644;2023-02-28T15:49:50;4.80;67.20
38936;DHT22;66589;47.458;9.644;2023-02-28T15:52:21;4.60;66.20
38936;DHT22;66589;47.458;9.644;2023-02-28T15:54:48;4.60;69.30
38936;DHT22;66589;47.458;9.644;2023-02-28T15:57:32;4.50;66.90
38936;DHT22;66589;47.458;9.644;2023-02-28T16:00:02;4.50;66.60
38936;DHT22;66589;47.458;9.644;2023-02-28T16:02:39;4.50;68.00
38936;DHT22;66589;47.458;9.644;2023-02-28T16:07:37;4.40;67.40
38936;DHT22;66589;47.458;9.644;2023-02-28T16:10:04;4.30;67.60
38936;DHT22;66589;47.458;9.644;2023-02-28T16:12:32;4.30;69.50
38936;DHT22;66589;47.458;9.644;2023-02-28T16:15:01;4.20;69.00
38936;DHT22;66589;47.458;9.644;2023-02-28T16:17:33;4.20;69.70
38936;DHT22;66589;47.458;9.644;2023-02-28T16:19:59;4.10;69.10
38936;DHT22;66589;47.458;9.644;2023-02-28T16:22:25;4.00;69.00
38936;DHT22;66589;47.458;9.644;2023-02-28T16:24:51;4.10;70.80
38936;DHT22;66589;47.458;9.644;2023-02-28T16:27:30;4.00;72.30
38936;DHT22;66589;47.458;9.644;2023-02-28T16:29:56;4.00;71.40
38936;DHT22;66589;47.458;9.644;2023-02-28T16:32:22;3.90;70.00
38936;DHT22;66589;47.458;9.644;2023-02-28T16:34:48;3.90;70.40
38936;DHT22;66589;47.458;9.644;2023-02-28T16:37:15;3.90;72.00
38936;DHT22;66589;47.458;9.644;2023-02-28T16:39:42;3.90;70.60
38936;DHT22;66589;47.458;9.644;2023-02-28T16:42:26;3.90;71.00
38936;DHT22;66589;47.458;9.644;2023-02-28T16:44:53;4.00;70.90
38936;DHT22;66589;47.458;9.644;2023-02-28T16:47:19;3.90;70.70
38936;DHT22;66589;47.458;9.644;2023-02-28T16:49:44;3.80;70.90
38936;DHT22;66589;47.458;9.644;2023-02-28T16:52:10;3.90;71.00
38936;DHT22;66589;47.458;9.644;2023-02-28T16:54:38;3.90;70.80
38936;DHT22;66589;47.458;9.644;2023-02-28T16:57:05;3.80;70.80
38936;DHT22;66589;47.458;9.644;2023-02-28T16:59:31;3.90;71.10
38936;DHT22;66589;47.458;9.644;2023-02-28T17:01:58;3.80;71.20
38936;DHT22;66589;47.458;9.644;2023-02-28T17:04:26;3.80;71.50
38936;DHT22;66589;47.458;9.644;2023-02-28T17:06:52;3.80;71.70
38936;DHT22;66589;47.458;9.644;2023-02-28T17:09:21;3.80;71.60
38936;DHT22;66589;47.458;9.644;2023-02-28T17:11:47;3.70;71.60
38936;DHT22;66589;47.458;9.644;2023-02-28T17:14:14;3.70;71.80
38936;DHT22;66589;47.458;9.644;2023-02-28T17:16:40;3.70;71.20
38936;DHT22;66589;47.458;9.644;2023-02-28T17:19:14;3.70;71.60
38936;DHT22;66589;47.458;9.644;2023-02-28T17:21:40;3.70;71.40
38936;DHT22;66589;47.458;9.644;2023-02-28T17:24:08;3.70;71.30
38936;DHT22;66589;47.458;9.644;2023-02-28T17:26:34;3.70;71.30
38936;DHT22;66589;47.458;9.644;2023-02-28T17:29:00;3.80;71.30
38936;DHT22;66589;47.458;9.644;2023-02-28T17:31:26;3.80;70.90
38936;DHT22;66589;47.458;9.644;2023-02-28T17:33:52;3.70;71.30
38936;DHT22;66589;47.458;9.644;2023-02-28T17:36:25;3.60;71.40
38936;DHT22;66589;47.458;9.644;2023-02-28T17:38:52;3.60;71.50
38936;DHT22;66589;47.458;9.644;2023-02-28T17:41:18;3.60;71.80
38936;DHT22;66589;47.458;9.644;2023-02-28T17:43:44;3.70;71.50
38936;DHT22;66589;47.458;9.644;2023-02-28T17:46:18;3.70;71.70
38936;DHT22;66589;47.458;9.644;2023-02-28T17:48:49;3.70;72.70
38936;DHT22;66589;47.458;9.644;2023-02-28T17:51:16;3.60;72.50
38936;DHT22;66589;47.458;9.644;2023-02-28T17:53:42;3.60;73.00
38936;DHT22;66589;47.458;9.644;2023-02-28T17:56:19;3.60;72.80
38936;DHT22;66589;47.458;9.644;2023-02-28T17:58:46;3.50;72.60
38936;DHT22;66589;47.458;9.644;2023-02-28T18:01:12;3.60;73.20
38936;DHT22;66589;47.458;9.644;2023-02-28T18:03:41;3.50;73.00
38936;DHT22;66589;47.458;9.644;2023-02-28T18:06:16;3.60;72.80
38936;DHT22;66589;47.458;9.644;2023-02-28T18:08:42;3.60;73.20
38936;DHT22;66589;47.458;9.644;2023-02-28T18:11:07;3.60;72.70
38936;DHT22;66589;47.458;9.644;2023-02-28T18:13:45;3.50;72.60
38936;DHT22;66589;47.458;9.644;2023-02-28T18:16:12;3.50;72.80
38936;DHT22;66589;47.458;9.644;2023-02-28T18:18:38;3.40;72.80
38936;DHT22;66589;47.458;9.644;2023-02-28T18:21:04;3.40;73.00
38936;DHT22;66589;47.458;9.644;2023-02-28T18:23:31;3.40;72.40
38936;DHT22;66589;47.458;9.644;2023-02-28T18:25:56;3.40;72.60
38936;DHT22;66589;47.458;9.644;2023-02-28T18:28:23;3.40;72.70
38936;DHT22;66589;47.458;9.644;2023-02-28T18:30:49;3.40;72.50
38936;DHT22;66589;47.458;9.644;2023-02-28T18:33:15;3.40;72.60
38936;DHT22;66589;47.458;9.644;2023-02-28T18:35:41;3.50;72.00
38936;DHT22;66589;47.458;9.644;2023-02-28T18:38:15;3.50;71.90
38936;DHT22;66589;47.458;9.644;2023-02-28T18:40:41;3.50;72.30
38936;DHT22;66589;47.458;9.644;2023-02-28T18:43:08;3.60;72.20
38936;DHT22;66589;47.458;9.644;2023-02-28T18:45:35;3.70;71.40
38936;DHT22;66589;47.458;9.644;2023-02-28T18:48:01;3.70;71.00
38936;DHT22;66589;47.458;9.644;2023-02-28T18:50:27;3.70;70.40
38936;DHT22;66589;47.458;9.644;2023-02-28T18:52:53;3.70;70.50